sensor_id;sensor_type;location;lat;lon;timestamp;temperature;humidity
6518;DHT22;3292;48.944;9.240;2023-03-01T00:01:00;-1.20;99.90
6518;DHT22;3292;48.944;9.240;2023-03-01T00:03:33;-1.20;99.90
6518;DHT22;3292;48.944;9.240;2023-03-01T00:09:22;-1.30;99.90
6518;DHT22;3292;48.944;9.240;2023-03-01T00:12:06;-1.30;99.90
6518;DHT22;3292;48.944;9.240;2023-03-01T00:14:46;-1.30;99.90
6518;DHT22;3292;48.944;9.240;2023-03-01T00:17:26;-1.40;99.90
6518;DHT22;3292;48.944;9.240;2023-03-01T00:20:22;-1.30;99.90
6518;DHT22;3292;48.944;9.240;2023-03-01T00:23:00;-1.30;99.90
6518;DHT22;3292;48.944;9.240;2023-03-01T00:25:42;-1.40;99.90
6518;DHT22;3292;48.944;9.240;2023-03-01T00:28:28;-1.40;99.90
6518;DHT22;3292;48.944;9.240;2023-03-01T00:31:06;-1.30;99.90
6518;DHT22;3292;48.944;9.240;2023-03-01T00:33:38;-1.40;99.90
6518;DHT22;3292;48.944;9.240;2023-03-01T00:36:14;-1.40;99.90
6518;DHT22;3292;48.944;9.240;2023-03-01T00:38:48;-1.30;99.90
6518;DHT22;3292;48.944;9.240;2023-03-01T00:41:22;-1.30;99.90
6518;DHT22;3292;48.944;9.240;2023-03-01T00:44:02;-1.30;99.90
6518;DHT22;3292;48.944;9.240;2023-03-01T00:46:36;-1.30;99.90
6518;DHT22;3292;48.944;9.240;2023-03-01T00:49:23;-1.20;99.90
6518;DHT22;3292;48.944;9.240;2023-03-01T00:52:04;-1.20;99.90
6518;DHT22;3292;48.944;9.240;2023-03-01T00:54:38;-1.30;99.90
6518;DHT22;3292;48.944;9.240;2023-03-01T00:57:42;-1.30;99.90
6518;DHT22;3292;48.944;9.240;2023-03-01T01:00:24;-1.30;99.90
6518;DHT22;3292;48.944;9.240;2023-03-01T01:03:05;-1.30;99.90
6518;DHT22;3292;48.944;9.240;2023-03-01T01:05:42;-1.30;99.90
6518;DHT22;3292;48.944;9.240;2023-03-01T01:08:17;-1.10;99.90
6518;DHT22;3292;48.944;9.240;2023-03-01T01:11:17;-1.10;99.90
6518;DHT22;3292;48.944;9.240;2023-03-01T01:13:52;-1.10;99.90
6518;DHT22;3292;48.944;9.240;2023-03-01T01:16:27;-1.20;99.90
6518;DHT22;3292;48.944;9.240;2023-03-01T01:19:04;-1.20;99.90
6518;DHT22;3292;48.944;9.240;2023-03-01T01:21:48;-1.30;99.90
6518;DHT22;3292;48.944;9.240;2023-03-01T01:24:27;-1.30;99.90
6518;DHT22;3292;48.944;9.240;2023-03-01T01:27:08;-1.30;99.90
6518;DHT22;3292;48.944;9.240;2023-03-01T01:29:37;-1.40;99.90
6518;DHT22;3292;48.944;9.240;2023-03-01T01:32:11;-1.40;99.90
6518;DHT22;3292;48.944;9.240;2023-03-01T01:34:57;-1.40;99.90
6518;DHT22;3292;48.944;9.240;2023-03-01T01:37:48;-1.40;99.90
6518;DHT22;3292;48.944;9.240;2023-03-01T01:40:48;-1.40;99.90
6518;DHT22;3292;48.944;9.240;2023-03-01T01:43:34;-1.50;99.90
6518;DHT22;3292;48.944;9.240;2023-03-01T01:46:10;-1.50;99.90
6518;DHT22;3292;48.944;9.240;2023-03-01T01:49:07;-1.50;99.90
6518;DHT22;3292;48.944;9.240;2023-03-01T01:51:59;-1.50;99.90
6518;DHT22;3292;48.944;9.240;2023-03-01T01:54:42;-1.50;99.90
6518;DHT22;3292;48.944;9.240;2023-03-01T01:57:18;-1.40;99.90
6518;DHT22;3292;48.944;9.240;2023-03-01T02:00:11;-1.40;99.90
6518;DHT22;3292;48.944;9.240;2023-03-01T02:02:59;-1.40;99.90
6518;DHT22;3292;48.944;9.240;2023-03-01T02:05:46;-1.40;99.90
6518;DHT22;3292;48.944;9.240;2023-03-01T02:08:26;-1.40;99.90
6518;DHT22;3292;48.944;9.240;2023-03-01T02:11:09;-1.40;99.90
6518;DHT22;3292;48.944;9.240;2023-03-01T02:16:27;-1.40;99.90
6518;DHT22;3292;48.944;9.240;2023-03-01T02:19:00;-1.40;99.90
6518;DHT22;3292;48.944;9.240;2023-03-01T02:21:38;-1.40;99.90
6518;DHT22;3292;48.944;9.240;2023-03-01T02:24:36;-1.30;99.90
6518;DHT22;3292;48.944;9.240;2023-03-01T02:27:29;-1.30;99.90
6518;DHT22;3292;48.944;9.240;2023-03-01T02:30:15;-1.20;99.90
6518;DHT22;3292;48.944;9.240;2023-03-01T02:32:53;-1.20;99.90
6518;DHT22;3292;48.944;9.240;2023-03-01T02:35:36;-1.10;99.90
6518;DHT22;3292;48.944;9.240;2023-03-01T02:38:24;-1.00;99.90
6518;DHT22;3292;48.944;9.240;2023-03-01T02:41:00;-1.00;99.90
6518;DHT22;3292;48.944;9.240;2023-03-01T02:43:39;-0.90;99.90
6518;DHT22;3292;48.944;9.240;2023-03-01T02:49:30;-0.90;99.90
6518;DHT22;3292;48.944;9.240;2023-03-01T02:52:39;-0.80;99.90
6518;DHT22;3292;48.944;9.240;2023-03-01T02:55:09;-0.60;99.90
6518;DHT22;3292;48.944;9.240;2023-03-01T02:57:51;-0.60;99.90
6518;DHT22;3292;48.944;9.240;2023-03-01T03:00:28;-0.60;99.90
6518;DHT22;3292;48.944;9.240;2023-03-01T03:03:02;-0.70;99.90
6518;DHT22;3292;48.944;9.240;2023-03-01T03:05:37;-0.70;99.90
6518;DHT22;3292;48.944;9.240;2023-03-01T03:08:09;-0.70;99.90
6518;DHT22;3292;48.944;9.240;2023-03-01T03:11:01;-0.60;99.90
6518;DHT22;3292;48.944;9.240;2023-03-01T03:13:37;-0.50;99.90
6518;DHT22;3292;48.944;9.240;2023-03-01T03:16:19;-0.50;99.90
6518;DHT22;3292;48.944;9.240;2023-03-01T03:18:57;-0.50;99.90
6518;DHT22;3292;48.944;9.240;2023-03-01T03:21:31;-0.60;99.90
6518;DHT22;3292;48.944;9.240;2023-03-01T03:24:04;-0.60;99.90
6518;DHT22;3292;48.944;9.240;2023-03-01T03:26:34;-0.50;99.90
6518;DHT22;3292;48.944;9.240;2023-03-01T03:29:07;-0.50;99.90
6518;DHT22;3292;48.944;9.240;2023-03-01T03:31:38;-0.50;99.90
6518;DHT22;3292;48.944;9.240;2023-03-01T03:34:07;-0.50;99.90
6518;DHT22;3292;48.944;9.240;2023-03-01T03:36:33;-0.50;99.90
6518;DHT22;3292;48.944;9.240;2023-03-01T03:39:00;-0.50;99.90
6518;DHT22;3292;48.944;9.240;2023-03-01T03:41:27;-0.60;99.90
6518;DHT22;3292;48.944;9.240;2023-03-01T03:43:54;-0.50;99.90
6518;DHT22;3292;48.944;9.240;2023-03-01T03:46:21;-0.60;99.90
6518;DHT22;3292;48.944;9.240;2023-03-01T03:48:47;-0.60;99.90
6518;DHT22;3292;48.944;9.240;2023-03-01T03:51:17;-0.60;99.90
6518;DHT22;3292;48.944;9.240;2023-03-01T03:53:45;-0.60;99.90
6518;DHT22;3292;48.944;9.240;2023-03-01T03:56:12;-0.50;99.90
6518;DHT22;3292;48.944;9.240;2023-03-01T03:58:39;-0.30;99.90
6518;DHT22;3292;48.944;9.240;2023-03-01T04:01:06;-0.20;99.90
6518;DHT22;3292;48.944;9.240;2023-03-01T04:03:33;-0.10;99.90
6518;DHT22;3292;48.944;9.240;2023-03-01T04:06:01;-0.20;99.90
6518;DHT22;3292;48.944;9.240;2023-03-01T04:08:29;-0.20;99.90
6518;DHT22;3292;48.944;9.240;2023-03-01T04:11:01;-0.20;99.90
6518;DHT22;3292;48.944;9.240;2023-03-01T04:13:48;-0.30;99.90
6518;DHT22;3292;48.944;9.240;2023-03-01T04:16:15;-0.30;99.90
6518;DHT22;3292;48.944;9.240;2023-03-01T04:18:43;-0.20;99.90
6518;DHT22;3292;48.944;9.240;2023-03-01T04:21:10;-0.20;99.90
6518;DHT22;3292;48.944;9.240;2023-03-01T04:23:38;-0.30;99.90
6518;DHT22;3292;48.944;9.240;2023-03-01T04:26:06;-0.30;99.90
6518;DHT22;3292;48.944;9.240;2023-03-01T04:28:34;-0.30;99.90
6518;DHT22;3292;48.944;9.240;2023-03-01T04:31:03;-0.30;99.90
6518;DHT22;3292;48.944;9.240;2023-03-01T04:33:38;-0.20;99.90
6518;DHT22;3292;48.944;9.240;2023-03-01T04:36:05;-0.20;99.90
6518;DHT22;3292;48.944;9.240;2023-03-01T04:38:34;-0.20;99.90
6518;DHT22;3292;48.944;9.240;2023-03-01T04:41:04;-0.20;99.90
6518;DHT22;3292;48.944;9.240;2023-03-01T04:43:31;-0.20;99.90
6518;DHT22;3292;48.944;9.240;2023-03-01T04:46:03;-0.20;99.90
6518;DHT22;3292;48.944;9.240;2023-03-01T04:48:31;-0.20;99.90
6518;DHT22;3292;48.944;9.240;2023-03-01T04:50:58;-0.20;99.90
6518;DHT22;3292;48.944;9.240;2023-03-01T04:53:26;0.00;99.90
6518;DHT22;3292;48.944;9.240;2023-03-01T04:55:54;0.00;99.90
6518;DHT22;3292;48.944;9.240;2023-03-01T04:58:23;0.00;99.90
6518;DHT22;3292;48.944;9.240;2023-03-01T05:00:50;0.00;99.90
6518;DHT22;3292;48.944;9.240;2023-03-01T05:03:17;0.00;99.90
6518;DHT22;3292;48.944;9.240;2023-03-01T05:05:45;0.00;99.90
6518;DHT22;3292;48.944;9.240;2023-03-01T05:08:13;0.00;99.90
6518;DHT22;3292;48.944;9.240;2023-03-01T05:10:44;0.00;99.90
6518;DHT22;3292;48.944;9.240;2023-03-01T05:13:13;0.00;99.90
6518;DHT22;3292;48.944;9.240;2023-03-01T05:15:42;0.00;99.90
6518;DHT22;3292;48.944;9.240;2023-03-01T05:18:08;0.00;99.90
6518;DHT22;3292;48.944;9.240;2023-03-01T05:20:37;0.00;99.90
6518;DHT22;3292;48.944;9.240;2023-03-01T05:23:04;0.00;99.90
6518;DHT22;3292;48.944;9.240;2023-03-01T05:25:32;-0.10;99.90
6518;DHT22;3292;48.944;9.240;2023-03-01T05:27:59;-0.10;99.90
6518;DHT22;3292;48.944;9.240;2023-03-01T05:30:30;-0.20;99.90
6518;DHT22;3292;48.944;9.240;2023-03-01T05:32:58;-0.30;99.90
6518;DHT22;3292;48.944;9.240;2023-03-01T05:35:25;-0.40;99.90
6518;DHT22;3292;48.944;9.240;2023-03-01T05:37:52;-0.50;99.90
6518;DHT22;3292;48.944;9.240;2023-03-01T05:40:21;-0.50;99.90
6518;DHT22;3292;48.944;9.240;2023-03-01T05:42:52;-0.60;99.90
6518;DHT22;3292;48.944;9.240;2023-03-01T05:45:19;-0.60;99.90
6518;DHT22;3292;48.944;9.240;2023-03-01T05:47:47;-0.60;99.90
6518;DHT22;3292;48.944;9.240;2023-03-01T05:50:18;-0.60;99.90
6518;DHT22;3292;48.944;9.240;2023-03-01T05:52:46;-0.70;99.90
6518;DHT22;3292;48.944;9.240;2023-03-01T05:55:14;-0.70;99.90
6518;DHT22;3292;48.944;9.240;2023-03-01T05:57:41;-0.70;99.90
6518;DHT22;3292;48.944;9.240;2023-03-01T06:00:09;-0.70;99.90
6518;DHT22;3292;48.944;9.240;2023-03-01T06:02:36;-0.60;99.90
6518;DHT22;3292;48.944;9.240;2023-03-01T06:05:04;-0.50;99.90
6518;DHT22;3292;48.944;9.240;2023-03-01T06:07:32;-0.50;99.90
6518;DHT22;3292;48.944;9.240;2023-03-01T06:09:59;-0.50;99.90
6518;DHT22;3292;48.944;9.240;2023-03-01T06:12:27;-0.60;99.90
6518;DHT22;3292;48.944;9.240;2023-03-01T06:14:56;-0.70;99.90
6518;DHT22;3292;48.944;9.240;2023-03-01T06:17:23;-0.70;99.90
6518;DHT22;3292;48.944;9.240;2023-03-01T06:19:49;-0.80;99.90
6518;DHT22;3292;48.944;9.240;2023-03-01T06:22:16;-0.80;99.90
6518;DHT22;3292;48.944;9.240;2023-03-01T06:24:44;-0.80;99.90
6518;DHT22;3292;48.944;9.240;2023-03-01T06:27:11;-0.80;99.90
6518;DHT22;3292;48.944;9.240;2023-03-01T06:29:38;-0.80;99.90
6518;DHT22;3292;48.944;9.240;2023-03-01T06:32:05;-0.80;99.90
6518;DHT22;3292;48.944;9.240;2023-03-01T06:34:32;-0.70;99.90
6518;DHT22;3292;48.944;9.240;2023-03-01T06:36:59;-0.70;99.90
6518;DHT22;3292;48.944;9.240;2023-03-01T06:39:30;-0.80;99.90
6518;DHT22;3292;48.944;9.240;2023-03-01T06:41:59;-0.80;99.90
6518;DHT22;3292;48.944;9.240;2023-03-01T06:44:26;-0.70;99.90
6518;DHT22;3292;48.944;9.240;2023-03-01T06:46:53;-0.70;99.90
6518;DHT22;3292;48.944;9.240;2023-03-01T06:49:20;-0.60;99.90
6518;DHT22;3292;48.944;9.240;2023-03-01T06:51:47;-0.60;99.90
6518;DHT22;3292;48.944;9.240;2023-03-01T06:54:14;-0.50;99.90
6518;DHT22;3292;48.944;9.240;2023-03-01T06:56:41;-0.50;99.90
6518;DHT22;3292;48.944;9.240;2023-03-01T06:59:09;-0.40;99.90
6518;DHT22;3292;48.944;9.240;2023-03-01T07:01:35;-0.30;99.90
6518;DHT22;3292;48.944;9.240;2023-03-01T07:04:02;-0.20;99.90
6518;DHT22;3292;48.944;9.240;2023-03-01T07:06:29;0.00;99.90
6518;DHT22;3292;48.944;9.240;2023-03-01T07:08:56;0.00;99.90
6518;DHT22;3292;48.944;9.240;2023-03-01T07:11:24;0.20;99.90
6518;DHT22;3292;48.944;9.240;2023-03-01T07:13:50;0.30;99.90
6518;DHT22;3292;48.944;9.240;2023-03-01T07:16:19;0.40;99.90
6518;DHT22;3292;48.944;9.240;2023-03-01T07:18:47;0.40;99.90
6518;DHT22;3292;48.944;9.240;2023-03-01T07:21:14;0.60;99.90
6518;DHT22;3292;48.944;9.240;2023-03-01T07:23:42;0.60;99.90
6518;DHT22;3292;48.944;9.240;2023-03-01T07:26:09;0.60;99.90
6518;DHT22;3292;48.944;9.240;2023-03-01T07:28:35;0.70;99.90
6518;DHT22;3292;48.944;9.240;2023-03-01T07:31:05;0.90;99.90
6518;DHT22;3292;48.944;9.240;2023-03-01T07:33:33;1.00;99.90
6518;DHT22;3292;48.944;9.240;2023-03-01T07:36:01;1.20;99.90
6518;DHT22;3292;48.944;9.240;2023-03-01T07:38:29;1.20;99.90
6518;DHT22;3292;48.944;9.240;2023-03-01T07:40:58;1.30;99.90
6518;DHT22;3292;48.944;9.240;2023-03-01T07:43:25;1.30;99.90
6518;DHT22;3292;48.944;9.240;2023-03-01T07:45:52;1.40;99.90
6518;DHT22;3292;48.944;9.240;2023-03-01T07:48:19;1.50;99.90
6518;DHT22;3292;48.944;9.240;2023-03-01T07:50:47;1.60;99.90
6518;DHT22;3292;48.944;9.240;2023-03-01T07:53:14;1.70;99.90
6518;DHT22;3292;48.944;9.240;2023-03-01T07:55:40;1.70;99.90
6518;DHT22;3292;48.944;9.240;2023-03-01T07:58:07;1.70;99.90
6518;DHT22;3292;48.944;9.240;2023-03-01T08:00:34;1.90;99.90
6518;DHT22;3292;48.944;9.240;2023-03-01T08:03:01;2.00;99.90
6518;DHT22;3292;48.944;9.240;2023-03-01T08:05:29;2.10;99.90
6518;DHT22;3292;48.944;9.240;2023-03-01T08:07:58;2.10;99.90
6518;DHT22;3292;48.944;9.240;2023-03-01T08:10:27;2.10;99.90
6518;DHT22;3292;48.944;9.240;2023-03-01T08:12:56;2.10;99.90
6518;DHT22;3292;48.944;9.240;2023-03-01T08:15:27;2.30;99.90
6518;DHT22;3292;48.944;9.240;2023-03-01T08:18:07;2.50;99.90
6518;DHT22;3292;48.944;9.240;2023-03-01T08:20:36;2.70;99.90
6518;DHT22;3292;48.944;9.240;2023-03-01T08:23:09;2.80;99.90
6518;DHT22;3292;48.944;9.240;2023-03-01T08:25:44;2.80;99.90
6518;DHT22;3292;48.944;9.240;2023-03-01T08:28:14;2.50;99.90
6518;DHT22;3292;48.944;9.240;2023-03-01T08:30:44;2.40;99.90
6518;DHT22;3292;48.944;9.240;2023-03-01T08:33:26;2.60;99.90
6518;DHT22;3292;48.944;9.240;2023-03-01T08:36:07;2.50;99.90
6518;DHT22;3292;48.944;9.240;2023-03-01T08:38:42;2.60;99.90
6518;DHT22;3292;48.944;9.240;2023-03-01T08:41:26;2.90;99.90
6518;DHT22;3292;48.944;9.240;2023-03-01T08:44:03;3.30;99.90
6518;DHT22;3292;48.944;9.240;2023-03-01T08:46:38;3.30;99.90
6518;DHT22;3292;48.944;9.240;2023-03-01T08:49:12;3.60;99.90
6518;DHT22;3292;48.944;9.240;2023-03-01T08:51:41;3.70;99.90
6518;DHT22;3292;48.944;9.240;2023-03-01T08:54:18;3.80;99.90
6518;DHT22;3292;48.944;9.240;2023-03-01T08:56:54;3.80;99.90
6518;DHT22;3292;48.944;9.240;2023-03-01T08:59:26;3.90;99.90
6518;DHT22;3292;48.944;9.240;2023-03-01T09:01:55;3.90;99.90
6518;DHT22;3292;48.944;9.240;2023-03-01T09:04:23;4.00;99.90
6518;DHT22;3292;48.944;9.240;2023-03-01T09:06:53;4.10;99.90
6518;DHT22;3292;48.944;9.240;2023-03-01T09:09:23;4.00;99.90
6518;DHT22;3292;48.944;9.240;2023-03-01T09:11:50;4.20;99.90
6518;DHT22;3292;48.944;9.240;2023-03-01T09:14:17;4.30;99.90
6518;DHT22;3292;48.944;9.240;2023-03-01T09:16:45;4.40;99.90
6518;DHT22;3292;48.944;9.240;2023-03-01T09:19:12;4.60;99.90
6518;DHT22;3292;48.944;9.240;2023-03-01T09:21:40;4.60;99.90
6518;DHT22;3292;48.944;9.240;2023-03-01T09:24:23;4.80;99.90
6518;DHT22;3292;48.944;9.240;2023-03-01T09:26:56;4.60;99.90
6518;DHT22;3292;48.944;9.240;2023-03-01T09:29:23;4.70;99.90
6518;DHT22;3292;48.944;9.240;2023-03-01T09:31:51;4.70;99.90
6518;DHT22;3292;48.944;9.240;2023-03-01T09:34:20;4.90;99.90
6518;DHT22;3292;48.944;9.240;2023-03-01T09:36:49;5.00;99.90
6518;DHT22;3292;48.944;9.240;2023-03-01T09:39:17;5.10;99.90
6518;DHT22;3292;48.944;9.240;2023-03-01T09:41:50;5.10;99.90
6518;DHT22;3292;48.944;9.240;2023-03-01T09:44:28;5.00;99.90
6518;DHT22;3292;48.944;9.240;2023-03-01T09:46:57;5.10;99.90
6518;DHT22;3292;48.944;9.240;2023-03-01T09:49:27;5.30;99.90
6518;DHT22;3292;48.944;9.240;2023-03-01T09:52:00;5.50;99.90
6518;DHT22;3292;48.944;9.240;2023-03-01T09:54:32;5.50;99.90
6518;DHT22;3292;48.944;9.240;2023-03-01T09:57:07;5.50;99.90
6518;DHT22;3292;48.944;9.240;2023-03-01T09:59:56;5.80;99.90
6518;DHT22;3292;48.944;9.240;2023-03-01T10:02:33;5.70;99.90
6518;DHT22;3292;48.944;9.240;2023-03-01T10:05:21;5.80;99.90
6518;DHT22;3292;48.944;9.240;2023-03-01T10:08:02;6.00;99.90
6518;DHT22;3292;48.944;9.240;2023-03-01T10:10:35;6.10;99.90
6518;DHT22;3292;48.944;9.240;2023-03-01T10:13:15;6.10;99.90
6518;DHT22;3292;48.944;9.240;2023-03-01T10:15:47;6.30;99.90
6518;DHT22;3292;48.944;9.240;2023-03-01T10:18:22;6.40;99.90
6518;DHT22;3292;48.944;9.240;2023-03-01T10:20:53;6.60;99.90
6518;DHT22;3292;48.944;9.240;2023-03-01T10:23:22;6.80;99.90
6518;DHT22;3292;48.944;9.240;2023-03-01T10:25:57;6.80;99.90
6518;DHT22;3292;48.944;9.240;2023-03-01T10:28:31;7.00;99.90
6518;DHT22;3292;48.944;9.240;2023-03-01T10:31:03;7.10;99.90
6518;DHT22;3292;48.944;9.240;2023-03-01T10:33:32;7.00;99.90
6518;DHT22;3292;48.944;9.240;2023-03-01T10:35:59;7.00;99.90
6518;DHT22;3292;48.944;9.240;2023-03-01T10:38:26;7.00;99.90
6518;DHT22;3292;48.944;9.240;2023-03-01T10:40:57;6.90;99.90
6518;DHT22;3292;48.944;9.240;2023-03-01T10:43:27;7.00;99.90
6518;DHT22;3292;48.944;9.240;2023-03-01T10:45:57;7.30;99.90
6518;DHT22;3292;48.944;9.240;2023-03-01T10:48:25;7.40;99.90
6518;DHT22;3292;48.944;9.240;2023-03-01T10:51:05;7.50;99.90
6518;DHT22;3292;48.944;9.240;2023-03-01T10:53:34;7.60;99.90
6518;DHT22;3292;48.944;9.240;2023-03-01T10:56:04;7.70;99.90
6518;DHT22;3292;48.944;9.240;2023-03-01T10:58:33;7.60;99.90
6518;DHT22;3292;48.944;9.240;2023-03-01T11:01:02;7.70;99.90
6518;DHT22;3292;48.944;9.240;2023-03-01T11:03:32;7.80;99.90
6518;DHT22;3292;48.944;9.240;2023-03-01T11:06:05;7.40;99.90
6518;DHT22;3292;48.944;9.240;2023-03-01T11:08:38;7.30;99.90
6518;DHT22;3292;48.944;9.240;2023-03-01T11:11:13;7.60;99.90
6518;DHT22;3292;48.944;9.240;2023-03-01T11:13:50;7.80;99.90
6518;DHT22;3292;48.944;9.240;2023-03-01T11:16:31;7.90;99.90
6518;DHT22;3292;48.944;9.240;2023-03-01T11:19:00;8.00;99.90
6518;DHT22;3292;48.944;9.240;2023-03-01T11:21:33;8.10;99.90
6518;DHT22;3292;48.944;9.240;2023-03-01T11:24:03;7.90;99.90
6518;DHT22;3292;48.944;9.240;2023-03-01T11:26:31;7.50;99.90
6518;DHT22;3292;48.944;9.240;2023-03-01T11:29:05;7.60;99.90
6518;DHT22;3292;48.944;9.240;2023-03-01T11:31:33;7.60;99.90
6518;DHT22;3292;48.944;9.240;2023-03-01T11:34:07;7.50;99.90
6518;DHT22;3292;48.944;9.240;2023-03-01T11:36:42;7.70;99.90
6518;DHT22;3292;48.944;9.240;2023-03-01T11:39:20;7.60;99.90
6518;DHT22;3292;48.944;9.240;2023-03-01T11:41:57;7.70;99.90
6518;DHT22;3292;48.944;9.240;2023-03-01T11:44:30;7.50;99.90
6518;DHT22;3292;48.944;9.240;2023-03-01T11:47:17;7.70;99.90
6518;DHT22;3292;48.944;9.240;2023-03-01T11:50:05;7.90;99.90
6518;DHT22;3292;48.944;9.240;2023-03-01T11:52:40;8.00;99.90
6518;DHT22;3292;48.944;9.240;2023-03-01T11:55:23;8.10;99.90
6518;DHT22;3292;48.944;9.240;2023-03-01T11:58:10;8.30;99.90
6518;DHT22;3292;48.944;9.240;2023-03-01T12:00:55;8.40;99.90
6518;DHT22;3292;48.944;9.240;2023-03-01T12:03:33;8.60;99.90
6518;DHT22;3292;48.944;9.240;2023-03-01T12:06:49;8.80;99.90
6518;DHT22;3292;48.944;9.240;2023-03-01T12:09:35;8.90;99.90
6518;DHT22;3292;48.944;9.240;2023-03-01T12:12:34;9.20;99.90
6518;DHT22;3292;48.944;9.240;2023-03-01T12:15:25;9.20;99.90
6518;DHT22;3292;48.944;9.240;2023-03-01T12:18:25;9.30;99.90
6518;DHT22;3292;48.944;9.240;2023-03-01T12:21:01;9.20;99.90
6518;DHT22;3292;48.944;9.240;2023-03-01T12:23:54;9.30;99.90
6518;DHT22;3292;48.944;9.240;2023-03-01T12:26:29;9.30;99.90
6518;DHT22;3292;48.944;9.240;2023-03-01T12:29:07;9.40;99.90
6518;DHT22;3292;48.944;9.240;2023-03-01T12:32:03;9.30;99.90
6518;DHT22;3292;48.944;9.240;2023-03-01T12:34:58;9.30;99.90
6518;DHT22;3292;48.944;9.240;2023-03-01T12:37:35;9.40;99.90
6518;DHT22;3292;48.944;9.240;2023-03-01T12:40:27;9.40;99.90
6518;DHT22;3292;48.944;9.240;2023-03-01T12:43:08;9.30;99.90
6518;DHT22;3292;48.944;9.240;2023-03-01T12:45:54;9.40;99.90
6518;DHT22;3292;48.944;9.240;2023-03-01T12:48:31;9.50;99.90
6518;DHT22;3292;48.944;9.240;2023-03-01T12:51:07;9.40;99.90
6518;DHT22;3292;48.944;9.240;2023-03-01T12:53:39;9.50;99.90
6518;DHT22;3292;48.944;9.240;2023-03-01T12:56:09;9.50;99.90
6518;DHT22;3292;48.944;9.240;2023-03-01T12:58:42;9.40;99.90
6518;DHT22;3292;48.944;9.240;2023-03-01T13:01:22;9.40;99.90
6518;DHT22;3292;48.944;9.240;2023-03-01T13:04:06;9.40;99.90
6518;DHT22;3292;48.944;9.240;2023-03-01T13:06:44;9.50;99.90
6518;DHT22;3292;48.944;9.240;2023-03-01T13:09:20;9.30;99.90
6518;DHT22;3292;48.944;9.240;2023-03-01T13:11:51;9.30;99.90
6518;DHT22;3292;48.944;9.240;2023-03-01T13:14:37;9.30;99.90
6518;DHT22;3292;48.944;9.240;2023-03-01T13:17:40;9.20;99.90
6518;DHT22;3292;48.944;9.240;2023-03-01T13:20:14;9.10;99.90
6518;DHT22;3292;48.944;9.240;2023-03-01T13:22:42;9.00;99.90
6518;DHT22;3292;48.944;9.240;2023-03-01T13:25:15;9.10;99.90
6518;DHT22;3292;48.944;9.240;2023-03-01T13:27:43;9.30;99.90
6518;DHT22;3292;48.944;9.240;2023-03-01T13:30:40;9.40;99.90
6518;DHT22;3292;48.944;9.240;2023-03-01T13:33:33;9.40;99.90
6518;DHT22;3292;48.944;9.240;2023-03-01T13:36:02;9.30;99.90
6518;DHT22;3292;48.944;9.240;2023-03-01T13:38:46;9.30;99.90
6518;DHT22;3292;48.944;9.240;2023-03-01T13:41:14;9.20;99.90
6518;DHT22;3292;48.944;9.240;2023-03-01T13:43:43;9.20;99.90
6518;DHT22;3292;48.944;9.240;2023-03-01T13:46:16;9.20;99.90
6518;DHT22;3292;48.944;9.240;2023-03-01T13:48:45;9.20;99.90
6518;DHT22;3292;48.944;9.240;2023-03-01T13:51:14;9.10;99.90
6518;DHT22;3292;48.944;9.240;2023-03-01T13:53:45;9.10;99.90
6518;DHT22;3292;48.944;9.240;2023-03-01T13:56:15;9.00;99.90
6518;DHT22;3292;48.944;9.240;2023-03-01T13:58:51;8.70;99.90
6518;DHT22;3292;48.944;9.240;2023-03-01T14:01:28;8.40;99.90
6518;DHT22;3292;48.944;9.240;2023-03-01T14:03:55;8.40;99.90
6518;DHT22;3292;48.944;9.240;2023-03-01T14:06:24;8.30;99.90
6518;DHT22;3292;48.944;9.240;2023-03-01T14:09:03;8.40;99.90
6518;DHT22;3292;48.944;9.240;2023-03-01T14:11:52;8.40;99.90
6518;DHT22;3292;48.944;9.240;2023-03-01T14:14:42;8.40;99.90
6518;DHT22;3292;48.944;9.240;2023-03-01T14:20:09;8.60;99.90
6518;DHT22;3292;48.944;9.240;2023-03-01T14:22:41;8.70;99.90
6518;DHT22;3292;48.944;9.240;2023-03-01T14:25:21;8.70;99.90
6518;DHT22;3292;48.944;9.240;2023-03-01T14:27:55;8.90;99.90
6518;DHT22;3292;48.944;9.240;2023-03-01T14:30:25;8.90;99.90
6518;DHT22;3292;48.944;9.240;2023-03-01T14:32:54;8.90;99.90
6518;DHT22;3292;48.944;9.240;2023-03-01T14:35:23;8.80;99.90
6518;DHT22;3292;48.944;9.240;2023-03-01T14:37:50;8.80;99.90
6518;DHT22;3292;48.944;9.240;2023-03-01T14:40:24;8.80;99.90
6518;DHT22;3292;48.944;9.240;2023-03-01T14:42:52;8.80;99.90
6518;DHT22;3292;48.944;9.240;2023-03-01T14:45:24;8.80;99.90
6518;DHT22;3292;48.944;9.240;2023-03-01T14:47:54;8.80;99.90
6518;DHT22;3292;48.944;9.240;2023-03-01T14:50:25;8.80;99.90
6518;DHT22;3292;48.944;9.240;2023-03-01T14:52:57;8.50;99.90
6518;DHT22;3292;48.944;9.240;2023-03-01T14:55:33;8.30;99.90
6518;DHT22;3292;48.944;9.240;2023-03-01T14:58:15;8.10;99.90
6518;DHT22;3292;48.944;9.240;2023-03-01T15:00:48;8.10;99.90
6518;DHT22;3292;48.944;9.240;2023-03-01T15:03:24;8.00;99.90
6518;DHT22;3292;48.944;9.240;2023-03-01T15:05:55;8.10;99.90
6518;DHT22;3292;48.944;9.240;2023-03-01T15:08:26;8.10;99.90
6518;DHT22;3292;48.944;9.240;2023-03-01T15:11:15;8.20;99.90
6518;DHT22;3292;48.944;9.240;2023-03-01T15:13:54;8.10;99.90
6518;DHT22;3292;48.944;9.240;2023-03-01T15:16:26;8.10;99.90
6518;DHT22;3292;48.944;9.240;2023-03-01T15:18:55;8.10;99.90
6518;DHT22;3292;48.944;9.240;2023-03-01T15:21:25;8.20;99.90
6518;DHT22;3292;48.944;9.240;2023-03-01T15:23:57;8.20;99.90
6518;DHT22;3292;48.944;9.240;2023-03-01T15:26:39;8.10;99.90
6518;DHT22;3292;48.944;9.240;2023-03-01T15:29:16;8.00;99.90
6518;DHT22;3292;48.944;9.240;2023-03-01T15:34:45;8.00;99.90
6518;DHT22;3292;48.944;9.240;2023-03-01T15:37:45;8.00;99.90
6518;DHT22;3292;48.944;9.240;2023-03-01T15:40:19;7.90;99.90
6518;DHT22;3292;48.944;9.240;2023-03-01T15:43:40;7.80;99.90
6518;DHT22;3292;48.944;9.240;2023-03-01T15:46:18;7.80;99.90
6518;DHT22;3292;48.944;9.240;2023-03-01T15:48:52;7.70;99.90
6518;DHT22;3292;48.944;9.240;2023-03-01T15:51:26;7.70;99.90
6518;DHT22;3292;48.944;9.240;2023-03-01T15:53:55;7.70;99.90
6518;DHT22;3292;48.944;9.240;2023-03-01T15:56:23;7.60;99.90
6518;DHT22;3292;48.944;9.240;2023-03-01T15:58:52;7.50;99.90
6518;DHT22;3292;48.944;9.240;2023-03-01T16:01:26;7.50;99.90
6518;DHT22;3292;48.944;9.240;2023-03-01T16:03:56;7.40;99.90
6518;DHT22;3292;48.944;9.240;2023-03-01T16:06:24;7.40;99.90
6518;DHT22;3292;48.944;9.240;2023-03-01T16:08:58;7.30;99.90
6518;DHT22;3292;48.944;9.240;2023-03-01T16:11:31;7.30;99.90
6518;DHT22;3292;48.944;9.240;2023-03-01T16:14:04;7.20;99.90
6518;DHT22;3292;48.944;9.240;2023-03-01T16:16:42;7.20;99.90
6518;DHT22;3292;48.944;9.240;2023-03-01T16:22:06;7.10;99.90
6518;DHT22;3292;48.944;9.240;2023-03-01T16:24:33;7.00;99.90
6518;DHT22;3292;48.944;9.240;2023-03-01T16:27:01;7.00;99.90
6518;DHT22;3292;48.944;9.240;2023-03-01T16:29:42;7.00;99.90
6518;DHT22;3292;48.944;9.240;2023-03-01T16:32:13;7.00;99.90
6518;DHT22;3292;48.944;9.240;2023-03-01T16:34:40;6.90;99.90
6518;DHT22;3292;48.944;9.240;2023-03-01T16:37:21;6.90;99.90
6518;DHT22;3292;48.944;9.240;2023-03-01T16:39:54;6.80;99.90
6518;DHT22;3292;48.944;9.240;2023-03-01T16:42:21;6.80;99.90
6518;DHT22;3292;48.944;9.240;2023-03-01T16:44:57;6.80;99.90
6518;DHT22;3292;48.944;9.240;2023-03-01T16:47:33;6.70;99.90
6518;DHT22;3292;48.944;9.240;2023-03-01T16:50:01;6.70;99.90
6518;DHT22;3292;48.944;9.240;2023-03-01T16:52:28;6.60;99.90
6518;DHT22;3292;48.944;9.240;2023-03-01T16:54:55;6.50;99.90
6518;DHT22;3292;48.944;9.240;2023-03-01T16:57:23;6.50;99.90
6518;DHT22;3292;48.944;9.240;2023-03-01T17:00:00;6.40;99.90
6518;DHT22;3292;48.944;9.240;2023-03-01T17:02:33;6.30;99.90
6518;DHT22;3292;48.944;9.240;2023-03-01T17:05:08;6.30;99.90
6518;DHT22;3292;48.944;9.240;2023-03-01T17:07:48;6.20;99.90
6518;DHT22;3292;48.944;9.240;2023-03-01T17:10:22;6.10;99.90
6518;DHT22;3292;48.944;9.240;2023-03-01T17:12:53;6.00;99.90
6518;DHT22;3292;48.944;9.240;2023-03-01T17:15:22;6.00;99.90